<?xml version="1.0" encoding="UTF-8" standalone="no" ?>
<gpx xmlns="http://www.topografix.com/GPX/1/1" xmlns:xsi="http://www.w3.org/2001/XMLSchema-instance" xsi:schemaLocation="http://www.topografix.com/GPX/1/1 http://www.topografix.com/GPX/1/1/gpx.xsd" version="1.1" creator="VisuGPX - https://www.visugpx.com">
  <metadata>
    <name>Rdv d\'Arzens</name>
    <desc><![CDATA[Cani-pluie]]></desc>
  </metadata>
  <trk>
    <name><![CDATA[2014-03-22 16:22:28]]></name>
    <trkseg>
      <trkpt lat="43.22202" lon="2.19533">
        <ele>142.41</ele>
        <time>2014-03-22T13:33:58Z</time>
      </trkpt>
      <trkpt lat="43.22203" lon="2.1953">
        <ele>142.89</ele>
        <time>2014-03-22T13:34:15Z</time>
      </trkpt>
      <trkpt lat="43.22205" lon="2.19528">
        <ele>143.85</ele>
        <time>2014-03-22T13:34:31Z</time>
      </trkpt>
      <trkpt lat="43.22208" lon="2.19526">
        <ele>143.85</ele>
        <time>2014-03-22T13:34:46Z</time>
      </trkpt>
      <trkpt lat="43.22212" lon="2.19524">
        <ele>144.34</ele>
        <time>2014-03-22T13:35:02Z</time>
      </trkpt>
      <trkpt lat="43.22215" lon="2.1952">
        <ele>145.3</ele>
        <time>2014-03-22T13:35:21Z</time>
      </trkpt>
      <trkpt lat="43.22215" lon="2.1952">
        <ele>146.26</ele>
        <time>2014-03-22T13:35:50Z</time>
      </trkpt>
      <trkpt lat="43.22219" lon="2.19519">
        <ele>145.78</ele>
        <time>2014-03-22T13:36:17Z</time>
      </trkpt>
      <trkpt lat="43.22219" lon="2.19521">
        <ele>145.3</ele>
        <time>2014-03-22T13:36:39Z</time>
      </trkpt>
      <trkpt lat="43.22216" lon="2.19519">
        <ele>146.26</ele>
        <time>2014-03-22T13:37:00Z</time>
      </trkpt>
      <trkpt lat="43.22214" lon="2.19519">
        <ele>146.74</ele>
        <time>2014-03-22T13:37:18Z</time>
      </trkpt>
      <trkpt lat="43.22213" lon="2.19516">
        <ele>144.34</ele>
        <time>2014-03-22T13:37:31Z</time>
      </trkpt>
      <trkpt lat="43.22212" lon="2.19516">
        <ele>144.34</ele>
        <time>2014-03-22T13:37:32Z</time>
      </trkpt>
      <trkpt lat="43.2221" lon="2.1952">
        <ele>143.37</ele>
        <time>2014-03-22T13:37:35Z</time>
      </trkpt>
      <trkpt lat="43.22206" lon="2.19524">
        <ele>141.93</ele>
        <time>2014-03-22T13:37:39Z</time>
      </trkpt>
      <trkpt lat="43.22203" lon="2.19533">
        <ele>140.49</ele>
        <time>2014-03-22T13:37:44Z</time>
      </trkpt>
      <trkpt lat="43.22204" lon="2.19543">
        <ele>139.53</ele>
        <time>2014-03-22T13:37:49Z</time>
      </trkpt>
      <trkpt lat="43.22206" lon="2.19568">
        <ele>138.57</ele>
        <time>2014-03-22T13:38:04Z</time>
      </trkpt>
      <trkpt lat="43.22204" lon="2.19592">
        <ele>138.57</ele>
        <time>2014-03-22T13:38:21Z</time>
      </trkpt>
      <trkpt lat="43.22204" lon="2.19603">
        <ele>138.57</ele>
        <time>2014-03-22T13:38:36Z</time>
      </trkpt>
      <trkpt lat="43.22206" lon="2.19617">
        <ele>138.57</ele>
        <time>2014-03-22T13:38:51Z</time>
      </trkpt>
      <trkpt lat="43.22204" lon="2.19638">
        <ele>137.61</ele>
        <time>2014-03-22T13:39:05Z</time>
      </trkpt>
      <trkpt lat="43.22204" lon="2.19657">
        <ele>137.13</ele>
        <time>2014-03-22T13:39:18Z</time>
      </trkpt>
      <trkpt lat="43.22202" lon="2.19667">
        <ele>137.61</ele>
        <time>2014-03-22T13:39:32Z</time>
      </trkpt>
      <trkpt lat="43.22203" lon="2.19696">
        <ele>138.57</ele>
        <time>2014-03-22T13:39:50Z</time>
      </trkpt>
      <trkpt lat="43.22203" lon="2.19728">
        <ele>137.61</ele>
        <time>2014-03-22T13:40:07Z</time>
      </trkpt>
      <trkpt lat="43.22203" lon="2.19757">
        <ele>137.13</ele>
        <time>2014-03-22T13:40:26Z</time>
      </trkpt>
      <trkpt lat="43.22202" lon="2.19768">
        <ele>137.13</ele>
        <time>2014-03-22T13:40:34Z</time>
      </trkpt>
      <trkpt lat="43.22202" lon="2.19787">
        <ele>136.64</ele>
        <time>2014-03-22T13:40:49Z</time>
      </trkpt>
      <trkpt lat="43.22204" lon="2.19814">
        <ele>136.64</ele>
        <time>2014-03-22T13:41:05Z</time>
      </trkpt>
      <trkpt lat="43.22208" lon="2.19838">
        <ele>136.64</ele>
        <time>2014-03-22T13:41:21Z</time>
      </trkpt>
      <trkpt lat="43.22208" lon="2.19857">
        <ele>136.64</ele>
        <time>2014-03-22T13:41:36Z</time>
      </trkpt>
      <trkpt lat="43.22211" lon="2.19881">
        <ele>136.64</ele>
        <time>2014-03-22T13:41:52Z</time>
      </trkpt>
      <trkpt lat="43.22215" lon="2.19906">
        <ele>137.13</ele>
        <time>2014-03-22T13:42:09Z</time>
      </trkpt>
      <trkpt lat="43.22218" lon="2.19931">
        <ele>137.13</ele>
        <time>2014-03-22T13:42:28Z</time>
      </trkpt>
      <trkpt lat="43.22218" lon="2.19936">
        <ele>136.64</ele>
        <time>2014-03-22T13:42:42Z</time>
      </trkpt>
      <trkpt lat="43.22215" lon="2.19943">
        <ele>136.16</ele>
        <time>2014-03-22T13:42:59Z</time>
      </trkpt>
      <trkpt lat="43.22216" lon="2.19949">
        <ele>134.24</ele>
        <time>2014-03-22T13:43:18Z</time>
      </trkpt>
      <trkpt lat="43.22216" lon="2.19967">
        <ele>133.76</ele>
        <time>2014-03-22T13:43:35Z</time>
      </trkpt>
      <trkpt lat="43.22216" lon="2.19986">
        <ele>132.8</ele>
        <time>2014-03-22T13:43:48Z</time>
      </trkpt>
      <trkpt lat="43.2222" lon="2.20014">
        <ele>132.8</ele>
        <time>2014-03-22T13:44:05Z</time>
      </trkpt>
      <trkpt lat="43.22223" lon="2.20041">
        <ele>132.32</ele>
        <time>2014-03-22T13:44:22Z</time>
      </trkpt>
      <trkpt lat="43.22229" lon="2.20075">
        <ele>131.84</ele>
        <time>2014-03-22T13:44:41Z</time>
      </trkpt>
      <trkpt lat="43.22238" lon="2.20108">
        <ele>132.32</ele>
        <time>2014-03-22T13:44:59Z</time>
      </trkpt>
      <trkpt lat="43.22245" lon="2.20136">
        <ele>132.8</ele>
        <time>2014-03-22T13:45:17Z</time>
      </trkpt>
      <trkpt lat="43.22245" lon="2.20149">
        <ele>132.8</ele>
        <time>2014-03-22T13:45:24Z</time>
      </trkpt>
      <trkpt lat="43.22243" lon="2.20154">
        <ele>133.28</ele>
        <time>2014-03-22T13:45:28Z</time>
      </trkpt>
      <trkpt lat="43.22236" lon="2.20155">
        <ele>132.8</ele>
        <time>2014-03-22T13:45:33Z</time>
      </trkpt>
      <trkpt lat="43.22208" lon="2.20148">
        <ele>132.32</ele>
        <time>2014-03-22T13:45:55Z</time>
      </trkpt>
      <trkpt lat="43.22181" lon="2.20143">
        <ele>133.28</ele>
        <time>2014-03-22T13:46:15Z</time>
      </trkpt>
      <trkpt lat="43.22165" lon="2.20139">
        <ele>134.24</ele>
        <time>2014-03-22T13:46:30Z</time>
      </trkpt>
      <trkpt lat="43.22117" lon="2.2014">
        <ele>156.35</ele>
        <time>2014-03-22T13:47:35Z</time>
      </trkpt>
      <trkpt lat="43.22108" lon="2.2013">
        <ele>143.85</ele>
        <time>2014-03-22T13:47:50Z</time>
      </trkpt>
      <trkpt lat="43.22083" lon="2.20122">
        <ele>141.93</ele>
        <time>2014-03-22T13:48:11Z</time>
      </trkpt>
      <trkpt lat="43.22053" lon="2.20119">
        <ele>143.37</ele>
        <time>2014-03-22T13:48:32Z</time>
      </trkpt>
      <trkpt lat="43.22028" lon="2.20116">
        <ele>143.37</ele>
        <time>2014-03-22T13:48:52Z</time>
      </trkpt>
      <trkpt lat="43.22024" lon="2.20116">
        <ele>143.85</ele>
        <time>2014-03-22T13:48:56Z</time>
      </trkpt>
      <trkpt lat="43.22005" lon="2.20132">
        <ele>144.82</ele>
        <time>2014-03-22T13:49:16Z</time>
      </trkpt>
      <trkpt lat="43.21995" lon="2.20138">
        <ele>145.78</ele>
        <time>2014-03-22T13:49:31Z</time>
      </trkpt>
      <trkpt lat="43.21976" lon="2.20142">
        <ele>144.34</ele>
        <time>2014-03-22T13:49:52Z</time>
      </trkpt>
      <trkpt lat="43.21963" lon="2.20151">
        <ele>143.85</ele>
        <time>2014-03-22T13:50:06Z</time>
      </trkpt>
      <trkpt lat="43.21942" lon="2.20153">
        <ele>142.89</ele>
        <time>2014-03-22T13:50:23Z</time>
      </trkpt>
      <trkpt lat="43.21935" lon="2.20157">
        <ele>142.89</ele>
        <time>2014-03-22T13:50:38Z</time>
      </trkpt>
      <trkpt lat="43.21932" lon="2.20157">
        <ele>142.41</ele>
        <time>2014-03-22T13:50:57Z</time>
      </trkpt>
      <trkpt lat="43.21928" lon="2.20161">
        <ele>143.85</ele>
        <time>2014-03-22T13:51:32Z</time>
      </trkpt>
      <trkpt lat="43.21927" lon="2.20162">
        <ele>145.3</ele>
        <time>2014-03-22T13:51:56Z</time>
      </trkpt>
      <trkpt lat="43.21918" lon="2.20162">
        <ele>145.3</ele>
        <time>2014-03-22T13:52:02Z</time>
      </trkpt>
      <trkpt lat="43.21892" lon="2.20163">
        <ele>144.82</ele>
        <time>2014-03-22T13:52:21Z</time>
      </trkpt>
      <trkpt lat="43.21866" lon="2.20166">
        <ele>145.3</ele>
        <time>2014-03-22T13:52:40Z</time>
      </trkpt>
      <trkpt lat="43.21837" lon="2.2017">
        <ele>146.74</ele>
        <time>2014-03-22T13:53:00Z</time>
      </trkpt>
      <trkpt lat="43.21822" lon="2.20173">
        <ele>147.22</ele>
        <time>2014-03-22T13:53:13Z</time>
      </trkpt>
      <trkpt lat="43.21814" lon="2.20174">
        <ele>147.7</ele>
        <time>2014-03-22T13:53:25Z</time>
      </trkpt>
      <trkpt lat="43.21795" lon="2.20179">
        <ele>147.22</ele>
        <time>2014-03-22T13:53:42Z</time>
      </trkpt>
      <trkpt lat="43.21782" lon="2.20179">
        <ele>146.74</ele>
        <time>2014-03-22T13:53:58Z</time>
      </trkpt>
      <trkpt lat="43.2178" lon="2.20177">
        <ele>146.74</ele>
        <time>2014-03-22T13:54:17Z</time>
      </trkpt>
      <trkpt lat="43.21774" lon="2.20178">
        <ele>145.78</ele>
        <time>2014-03-22T13:54:32Z</time>
      </trkpt>
      <trkpt lat="43.21753" lon="2.2018">
        <ele>145.78</ele>
        <time>2014-03-22T13:54:52Z</time>
      </trkpt>
      <trkpt lat="43.21729" lon="2.20182">
        <ele>144.82</ele>
        <time>2014-03-22T13:55:12Z</time>
      </trkpt>
      <trkpt lat="43.21706" lon="2.20182">
        <ele>143.85</ele>
        <time>2014-03-22T13:55:31Z</time>
      </trkpt>
      <trkpt lat="43.21688" lon="2.20184">
        <ele>141.93</ele>
        <time>2014-03-22T13:55:48Z</time>
      </trkpt>
      <trkpt lat="43.21664" lon="2.20187">
        <ele>140.49</ele>
        <time>2014-03-22T13:56:08Z</time>
      </trkpt>
      <trkpt lat="43.21644" lon="2.2019">
        <ele>140.49</ele>
        <time>2014-03-22T13:56:27Z</time>
      </trkpt>
      <trkpt lat="43.21622" lon="2.20194">
        <ele>141.45</ele>
        <time>2014-03-22T13:56:47Z</time>
      </trkpt>
      <trkpt lat="43.21602" lon="2.20195">
        <ele>141.45</ele>
        <time>2014-03-22T13:57:06Z</time>
      </trkpt>
      <trkpt lat="43.21579" lon="2.202">
        <ele>141.93</ele>
        <time>2014-03-22T13:57:25Z</time>
      </trkpt>
      <trkpt lat="43.21544" lon="2.20208">
        <ele>144.82</ele>
        <time>2014-03-22T13:57:46Z</time>
      </trkpt>
      <trkpt lat="43.21523" lon="2.20209">
        <ele>144.34</ele>
        <time>2014-03-22T13:58:03Z</time>
      </trkpt>
      <trkpt lat="43.2151" lon="2.20205">
        <ele>142.41</ele>
        <time>2014-03-22T13:58:19Z</time>
      </trkpt>
      <trkpt lat="43.21506" lon="2.20207">
        <ele>142.89</ele>
        <time>2014-03-22T13:58:24Z</time>
      </trkpt>
      <trkpt lat="43.21502" lon="2.20205">
        <ele>144.82</ele>
        <time>2014-03-22T13:58:28Z</time>
      </trkpt>
      <trkpt lat="43.21505" lon="2.2019">
        <ele>147.22</ele>
        <time>2014-03-22T13:58:37Z</time>
      </trkpt>
      <trkpt lat="43.21515" lon="2.20154">
        <ele>147.7</ele>
        <time>2014-03-22T13:58:58Z</time>
      </trkpt>
      <trkpt lat="43.21518" lon="2.20128">
        <ele>146.74</ele>
        <time>2014-03-22T13:59:14Z</time>
      </trkpt>
      <trkpt lat="43.21523" lon="2.20102">
        <ele>146.26</ele>
        <time>2014-03-22T13:59:32Z</time>
      </trkpt>
      <trkpt lat="43.2153" lon="2.2007">
        <ele>145.3</ele>
        <time>2014-03-22T13:59:51Z</time>
      </trkpt>
      <trkpt lat="43.21539" lon="2.20034">
        <ele>145.78</ele>
        <time>2014-03-22T14:00:11Z</time>
      </trkpt>
      <trkpt lat="43.21548" lon="2.20014">
        <ele>145.78</ele>
        <time>2014-03-22T14:00:30Z</time>
      </trkpt>
      <trkpt lat="43.2155" lon="2.20012">
        <ele>145.78</ele>
        <time>2014-03-22T14:00:33Z</time>
      </trkpt>
      <trkpt lat="43.21568" lon="2.1999">
        <ele>144.82</ele>
        <time>2014-03-22T14:00:51Z</time>
      </trkpt>
      <trkpt lat="43.21581" lon="2.1998">
        <ele>143.37</ele>
        <time>2014-03-22T14:01:09Z</time>
      </trkpt>
      <trkpt lat="43.21584" lon="2.19979">
        <ele>147.22</ele>
        <time>2014-03-22T14:01:33Z</time>
      </trkpt>
      <trkpt lat="43.21584" lon="2.19979">
        <ele>146.74</ele>
        <time>2014-03-22T14:01:54Z</time>
      </trkpt>
      <trkpt lat="43.21584" lon="2.19976">
        <ele>149.14</ele>
        <time>2014-03-22T14:02:14Z</time>
      </trkpt>
      <trkpt lat="43.21585" lon="2.19975">
        <ele>149.14</ele>
        <time>2014-03-22T14:02:16Z</time>
      </trkpt>
      <trkpt lat="43.21593" lon="2.19961">
        <ele>148.66</ele>
        <time>2014-03-22T14:02:31Z</time>
      </trkpt>
      <trkpt lat="43.21604" lon="2.19947">
        <ele>147.22</ele>
        <time>2014-03-22T14:02:44Z</time>
      </trkpt>
      <trkpt lat="43.21619" lon="2.19928">
        <ele>147.22</ele>
        <time>2014-03-22T14:03:00Z</time>
      </trkpt>
      <trkpt lat="43.21629" lon="2.19917">
        <ele>146.26</ele>
        <time>2014-03-22T14:03:16Z</time>
      </trkpt>
      <trkpt lat="43.21643" lon="2.19903">
        <ele>144.82</ele>
        <time>2014-03-22T14:03:29Z</time>
      </trkpt>
      <trkpt lat="43.21658" lon="2.19877">
        <ele>144.82</ele>
        <time>2014-03-22T14:03:48Z</time>
      </trkpt>
      <trkpt lat="43.2167" lon="2.19854">
        <ele>147.22</ele>
        <time>2014-03-22T14:04:03Z</time>
      </trkpt>
      <trkpt lat="43.21691" lon="2.1983">
        <ele>148.18</ele>
        <time>2014-03-22T14:04:23Z</time>
      </trkpt>
      <trkpt lat="43.2171" lon="2.19809">
        <ele>148.18</ele>
        <time>2014-03-22T14:04:43Z</time>
      </trkpt>
      <trkpt lat="43.2172" lon="2.19801">
        <ele>147.7</ele>
        <time>2014-03-22T14:04:52Z</time>
      </trkpt>
      <trkpt lat="43.21739" lon="2.19778">
        <ele>147.22</ele>
        <time>2014-03-22T14:05:11Z</time>
      </trkpt>
      <trkpt lat="43.21758" lon="2.19754">
        <ele>147.7</ele>
        <time>2014-03-22T14:05:30Z</time>
      </trkpt>
      <trkpt lat="43.21777" lon="2.19731">
        <ele>148.66</ele>
        <time>2014-03-22T14:05:49Z</time>
      </trkpt>
      <trkpt lat="43.21795" lon="2.19707">
        <ele>149.62</ele>
        <time>2014-03-22T14:06:08Z</time>
      </trkpt>
      <trkpt lat="43.21804" lon="2.19698">
        <ele>149.62</ele>
        <time>2014-03-22T14:06:19Z</time>
      </trkpt>
      <trkpt lat="43.21824" lon="2.19677">
        <ele>150.58</ele>
        <time>2014-03-22T14:06:38Z</time>
      </trkpt>
      <trkpt lat="43.21846" lon="2.19662">
        <ele>149.62</ele>
        <time>2014-03-22T14:06:57Z</time>
      </trkpt>
      <trkpt lat="43.21863" lon="2.19656">
        <ele>149.14</ele>
        <time>2014-03-22T14:07:14Z</time>
      </trkpt>
      <trkpt lat="43.21882" lon="2.1965">
        <ele>148.18</ele>
        <time>2014-03-22T14:07:30Z</time>
      </trkpt>
      <trkpt lat="43.21905" lon="2.19647">
        <ele>148.18</ele>
        <time>2014-03-22T14:07:48Z</time>
      </trkpt>
      <trkpt lat="43.21924" lon="2.19643">
        <ele>149.14</ele>
        <time>2014-03-22T14:08:09Z</time>
      </trkpt>
      <trkpt lat="43.21926" lon="2.19639">
        <ele>149.62</ele>
        <time>2014-03-22T14:08:21Z</time>
      </trkpt>
      <trkpt lat="43.21946" lon="2.1963">
        <ele>148.18</ele>
        <time>2014-03-22T14:08:39Z</time>
      </trkpt>
      <trkpt lat="43.21966" lon="2.19623">
        <ele>146.74</ele>
        <time>2014-03-22T14:08:56Z</time>
      </trkpt>
      <trkpt lat="43.21986" lon="2.19616">
        <ele>145.3</ele>
        <time>2014-03-22T14:09:13Z</time>
      </trkpt>
      <trkpt lat="43.22006" lon="2.19606">
        <ele>146.26</ele>
        <time>2014-03-22T14:09:32Z</time>
      </trkpt>
      <trkpt lat="43.22024" lon="2.19599">
        <ele>145.78</ele>
        <time>2014-03-22T14:09:50Z</time>
      </trkpt>
      <trkpt lat="43.22045" lon="2.19591">
        <ele>145.3</ele>
        <time>2014-03-22T14:10:10Z</time>
      </trkpt>
      <trkpt lat="43.22059" lon="2.19584">
        <ele>144.34</ele>
        <time>2014-03-22T14:10:28Z</time>
      </trkpt>
      <trkpt lat="43.22071" lon="2.1958">
        <ele>143.85</ele>
        <time>2014-03-22T14:10:42Z</time>
      </trkpt>
      <trkpt lat="43.22087" lon="2.19572">
        <ele>144.82</ele>
        <time>2014-03-22T14:11:00Z</time>
      </trkpt>
      <trkpt lat="43.22102" lon="2.19566">
        <ele>145.3</ele>
        <time>2014-03-22T14:11:17Z</time>
      </trkpt>
      <trkpt lat="43.22121" lon="2.19559">
        <ele>146.74</ele>
        <time>2014-03-22T14:11:35Z</time>
      </trkpt>
      <trkpt lat="43.22133" lon="2.19554">
        <ele>146.26</ele>
        <time>2014-03-22T14:11:52Z</time>
      </trkpt>
      <trkpt lat="43.22135" lon="2.19551">
        <ele>149.14</ele>
        <time>2014-03-22T14:12:17Z</time>
      </trkpt>
      <trkpt lat="43.2214" lon="2.19545">
        <ele>146.74</ele>
        <time>2014-03-22T14:12:29Z</time>
      </trkpt>
      <trkpt lat="43.22142" lon="2.19527">
        <ele>143.85</ele>
        <time>2014-03-22T14:12:43Z</time>
      </trkpt>
      <trkpt lat="43.22136" lon="2.19488">
        <ele>142.89</ele>
        <time>2014-03-22T14:13:04Z</time>
      </trkpt>
      <trkpt lat="43.22132" lon="2.19455">
        <ele>142.89</ele>
        <time>2014-03-22T14:13:24Z</time>
      </trkpt>
      <trkpt lat="43.2213" lon="2.19421">
        <ele>142.89</ele>
        <time>2014-03-22T14:13:44Z</time>
      </trkpt>
      <trkpt lat="43.2213" lon="2.1939">
        <ele>143.37</ele>
        <time>2014-03-22T14:14:03Z</time>
      </trkpt>
      <trkpt lat="43.22129" lon="2.19362">
        <ele>138.57</ele>
        <time>2014-03-22T14:14:23Z</time>
      </trkpt>
      <trkpt lat="43.22128" lon="2.1933">
        <ele>139.53</ele>
        <time>2014-03-22T14:14:41Z</time>
      </trkpt>
      <trkpt lat="43.22127" lon="2.19302">
        <ele>140.97</ele>
        <time>2014-03-22T14:14:58Z</time>
      </trkpt>
      <trkpt lat="43.22124" lon="2.19269">
        <ele>141.93</ele>
        <time>2014-03-22T14:15:17Z</time>
      </trkpt>
      <trkpt lat="43.22124" lon="2.19244">
        <ele>145.3</ele>
        <time>2014-03-22T14:15:35Z</time>
      </trkpt>
      <trkpt lat="43.22123" lon="2.19218">
        <ele>145.3</ele>
        <time>2014-03-22T14:15:53Z</time>
      </trkpt>
      <trkpt lat="43.22123" lon="2.19186">
        <ele>143.37</ele>
        <time>2014-03-22T14:16:14Z</time>
      </trkpt>
      <trkpt lat="43.22123" lon="2.19152">
        <ele>141.93</ele>
        <time>2014-03-22T14:16:34Z</time>
      </trkpt>
      <trkpt lat="43.22124" lon="2.19142">
        <ele>141.93</ele>
        <time>2014-03-22T14:16:39Z</time>
      </trkpt>
      <trkpt lat="43.22123" lon="2.19113">
        <ele>141.93</ele>
        <time>2014-03-22T14:16:57Z</time>
      </trkpt>
      <trkpt lat="43.22121" lon="2.19106">
        <ele>142.89</ele>
        <time>2014-03-22T14:17:02Z</time>
      </trkpt>
      <trkpt lat="43.22119" lon="2.19103">
        <ele>142.89</ele>
        <time>2014-03-22T14:17:05Z</time>
      </trkpt>
      <trkpt lat="43.22114" lon="2.191">
        <ele>142.89</ele>
        <time>2014-03-22T14:17:11Z</time>
      </trkpt>
      <trkpt lat="43.22108" lon="2.19099">
        <ele>142.41</ele>
        <time>2014-03-22T14:17:24Z</time>
      </trkpt>
      <trkpt lat="43.22105" lon="2.19096">
        <ele>142.89</ele>
        <time>2014-03-22T14:17:27Z</time>
      </trkpt>
      <trkpt lat="43.22105" lon="2.19088">
        <ele>142.89</ele>
        <time>2014-03-22T14:17:31Z</time>
      </trkpt>
      <trkpt lat="43.22105" lon="2.19073">
        <ele>143.85</ele>
        <time>2014-03-22T14:17:42Z</time>
      </trkpt>
      <trkpt lat="43.22105" lon="2.19053">
        <ele>145.3</ele>
        <time>2014-03-22T14:17:55Z</time>
      </trkpt>
      <trkpt lat="43.22104" lon="2.19041">
        <ele>144.82</ele>
        <time>2014-03-22T14:18:06Z</time>
      </trkpt>
      <trkpt lat="43.22105" lon="2.19008">
        <ele>144.82</ele>
        <time>2014-03-22T14:18:25Z</time>
      </trkpt>
      <trkpt lat="43.2211" lon="2.19">
        <ele>142.41</ele>
        <time>2014-03-22T14:18:37Z</time>
      </trkpt>
      <trkpt lat="43.22118" lon="2.18999">
        <ele>140.49</ele>
        <time>2014-03-22T14:18:46Z</time>
      </trkpt>
      <trkpt lat="43.22178" lon="2.18984">
        <ele>141.45</ele>
        <time>2014-03-22T14:19:39Z</time>
      </trkpt>
      <trkpt lat="43.22199" lon="2.18965">
        <ele>142.41</ele>
        <time>2014-03-22T14:19:59Z</time>
      </trkpt>
      <trkpt lat="43.22202" lon="2.18962">
        <ele>142.41</ele>
        <time>2014-03-22T14:20:01Z</time>
      </trkpt>
      <trkpt lat="43.22203" lon="2.1896">
        <ele>142.41</ele>
        <time>2014-03-22T14:20:03Z</time>
      </trkpt>
      <trkpt lat="43.22214" lon="2.18934">
        <ele>142.89</ele>
        <time>2014-03-22T14:20:21Z</time>
      </trkpt>
      <trkpt lat="43.22218" lon="2.1892">
        <ele>142.41</ele>
        <time>2014-03-22T14:20:39Z</time>
      </trkpt>
      <trkpt lat="43.2222" lon="2.18914">
        <ele>142.89</ele>
        <time>2014-03-22T14:20:55Z</time>
      </trkpt>
      <trkpt lat="43.22223" lon="2.18914">
        <ele>142.89</ele>
        <time>2014-03-22T14:21:13Z</time>
      </trkpt>
      <trkpt lat="43.22226" lon="2.18915">
        <ele>141.45</ele>
        <time>2014-03-22T14:21:32Z</time>
      </trkpt>
      <trkpt lat="43.22229" lon="2.18917">
        <ele>140.97</ele>
        <time>2014-03-22T14:21:54Z</time>
      </trkpt>
      <trkpt lat="43.22235" lon="2.1894">
        <ele>140.01</ele>
        <time>2014-03-22T14:22:12Z</time>
      </trkpt>
      <trkpt lat="43.22242" lon="2.1896">
        <ele>140.49</ele>
        <time>2014-03-22T14:22:28Z</time>
      </trkpt>
      <trkpt lat="43.2225" lon="2.18979">
        <ele>139.05</ele>
        <time>2014-03-22T14:22:44Z</time>
      </trkpt>
      <trkpt lat="43.22255" lon="2.18993">
        <ele>139.05</ele>
        <time>2014-03-22T14:22:59Z</time>
      </trkpt>
      <trkpt lat="43.22259" lon="2.19007">
        <ele>139.05</ele>
        <time>2014-03-22T14:23:09Z</time>
      </trkpt>
      <trkpt lat="43.22265" lon="2.19026">
        <ele>138.57</ele>
        <time>2014-03-22T14:23:25Z</time>
      </trkpt>
      <trkpt lat="43.22272" lon="2.19047">
        <ele>137.13</ele>
        <time>2014-03-22T14:23:41Z</time>
      </trkpt>
      <trkpt lat="43.22284" lon="2.19073">
        <ele>140.01</ele>
        <time>2014-03-22T14:23:59Z</time>
      </trkpt>
      <trkpt lat="43.22296" lon="2.19103">
        <ele>140.49</ele>
        <time>2014-03-22T14:24:20Z</time>
      </trkpt>
      <trkpt lat="43.22307" lon="2.19128">
        <ele>139.53</ele>
        <time>2014-03-22T14:24:38Z</time>
      </trkpt>
      <trkpt lat="43.22315" lon="2.19153">
        <ele>137.61</ele>
        <time>2014-03-22T14:24:56Z</time>
      </trkpt>
      <trkpt lat="43.22318" lon="2.19159">
        <ele>137.61</ele>
        <time>2014-03-22T14:25:14Z</time>
      </trkpt>
      <trkpt lat="43.22319" lon="2.19161">
        <ele>138.09</ele>
        <time>2014-03-22T14:25:31Z</time>
      </trkpt>
      <trkpt lat="43.22319" lon="2.19164">
        <ele>139.05</ele>
        <time>2014-03-22T14:25:44Z</time>
      </trkpt>
      <trkpt lat="43.22318" lon="2.19166">
        <ele>138.57</ele>
        <time>2014-03-22T14:26:00Z</time>
      </trkpt>
      <trkpt lat="43.22317" lon="2.19166">
        <ele>138.57</ele>
        <time>2014-03-22T14:26:24Z</time>
      </trkpt>
      <trkpt lat="43.22317" lon="2.19166">
        <ele>140.01</ele>
        <time>2014-03-22T14:26:52Z</time>
      </trkpt>
      <trkpt lat="43.22318" lon="2.19166">
        <ele>140.01</ele>
        <time>2014-03-22T14:27:21Z</time>
      </trkpt>
      <trkpt lat="43.22319" lon="2.19168">
        <ele>139.53</ele>
        <time>2014-03-22T14:27:46Z</time>
      </trkpt>
      <trkpt lat="43.22323" lon="2.1918">
        <ele>138.57</ele>
        <time>2014-03-22T14:27:57Z</time>
      </trkpt>
      <trkpt lat="43.22331" lon="2.19203">
        <ele>136.16</ele>
        <time>2014-03-22T14:28:15Z</time>
      </trkpt>
      <trkpt lat="43.22337" lon="2.19223">
        <ele>136.16</ele>
        <time>2014-03-22T14:28:32Z</time>
      </trkpt>
      <trkpt lat="43.2234" lon="2.1923">
        <ele>136.16</ele>
        <time>2014-03-22T14:28:47Z</time>
      </trkpt>
      <trkpt lat="43.2234" lon="2.19244">
        <ele>136.16</ele>
        <time>2014-03-22T14:29:02Z</time>
      </trkpt>
      <trkpt lat="43.22347" lon="2.19263">
        <ele>134.72</ele>
        <time>2014-03-22T14:29:19Z</time>
      </trkpt>
      <trkpt lat="43.22352" lon="2.1927">
        <ele>135.2</ele>
        <time>2014-03-22T14:29:26Z</time>
      </trkpt>
      <trkpt lat="43.22354" lon="2.19275">
        <ele>135.2</ele>
        <time>2014-03-22T14:29:28Z</time>
      </trkpt>
      <trkpt lat="43.22354" lon="2.19278">
        <ele>135.2</ele>
        <time>2014-03-22T14:29:29Z</time>
      </trkpt>
      <trkpt lat="43.22355" lon="2.19281">
        <ele>134.72</ele>
        <time>2014-03-22T14:29:30Z</time>
      </trkpt>
      <trkpt lat="43.22356" lon="2.19283">
        <ele>134.72</ele>
        <time>2014-03-22T14:29:31Z</time>
      </trkpt>
      <trkpt lat="43.22359" lon="2.19291">
        <ele>133.76</ele>
        <time>2014-03-22T14:29:44Z</time>
      </trkpt>
      <trkpt lat="43.22364" lon="2.19299">
        <ele>134.72</ele>
        <time>2014-03-22T14:30:05Z</time>
      </trkpt>
      <trkpt lat="43.22368" lon="2.19307">
        <ele>133.76</ele>
        <time>2014-03-22T14:30:21Z</time>
      </trkpt>
      <trkpt lat="43.2237" lon="2.19315">
        <ele>134.24</ele>
        <time>2014-03-22T14:30:34Z</time>
      </trkpt>
      <trkpt lat="43.22373" lon="2.19321">
        <ele>135.2</ele>
        <time>2014-03-22T14:30:49Z</time>
      </trkpt>
      <trkpt lat="43.22376" lon="2.19333">
        <ele>134.72</ele>
        <time>2014-03-22T14:31:04Z</time>
      </trkpt>
      <trkpt lat="43.22385" lon="2.1936">
        <ele>133.28</ele>
        <time>2014-03-22T14:31:22Z</time>
      </trkpt>
      <trkpt lat="43.22396" lon="2.1939">
        <ele>133.76</ele>
        <time>2014-03-22T14:31:42Z</time>
      </trkpt>
      <trkpt lat="43.22404" lon="2.19414">
        <ele>135.2</ele>
        <time>2014-03-22T14:31:57Z</time>
      </trkpt>
      <trkpt lat="43.2239" lon="2.1944">
        <ele>136.64</ele>
        <time>2014-03-22T14:32:17Z</time>
      </trkpt>
      <trkpt lat="43.22386" lon="2.19444">
        <ele>136.16</ele>
        <time>2014-03-22T14:32:22Z</time>
      </trkpt>
      <trkpt lat="43.22373" lon="2.19456">
        <ele>137.13</ele>
        <time>2014-03-22T14:32:39Z</time>
      </trkpt>
      <trkpt lat="43.22368" lon="2.19457">
        <ele>137.61</ele>
        <time>2014-03-22T14:32:51Z</time>
      </trkpt>
      <trkpt lat="43.22356" lon="2.19464">
        <ele>137.61</ele>
        <time>2014-03-22T14:33:05Z</time>
      </trkpt>
      <trkpt lat="43.22356" lon="2.19469">
        <ele>137.13</ele>
        <time>2014-03-22T14:33:10Z</time>
      </trkpt>
      <trkpt lat="43.22366" lon="2.19465">
        <ele>136.16</ele>
        <time>2014-03-22T14:33:27Z</time>
      </trkpt>
      <trkpt lat="43.22375" lon="2.1946">
        <ele>134.72</ele>
        <time>2014-03-22T14:33:42Z</time>
      </trkpt>
      <trkpt lat="43.22392" lon="2.19447">
        <ele>133.28</ele>
        <time>2014-03-22T14:33:59Z</time>
      </trkpt>
      <trkpt lat="43.22412" lon="2.19426">
        <ele>133.28</ele>
        <time>2014-03-22T14:34:21Z</time>
      </trkpt>
      <trkpt lat="43.22427" lon="2.19416">
        <ele>133.76</ele>
        <time>2014-03-22T14:34:40Z</time>
      </trkpt>
      <trkpt lat="43.22445" lon="2.19407">
        <ele>133.28</ele>
        <time>2014-03-22T14:34:57Z</time>
      </trkpt>
      <trkpt lat="43.2247" lon="2.19391">
        <ele>133.28</ele>
        <time>2014-03-22T14:35:19Z</time>
      </trkpt>
      <trkpt lat="43.22484" lon="2.19381">
        <ele>133.76</ele>
        <time>2014-03-22T14:35:34Z</time>
      </trkpt>
      <trkpt lat="43.225" lon="2.19373">
        <ele>134.72</ele>
        <time>2014-03-22T14:35:50Z</time>
      </trkpt>
      <trkpt lat="43.22515" lon="2.19365">
        <ele>134.24</ele>
        <time>2014-03-22T14:36:09Z</time>
      </trkpt>
      <trkpt lat="43.22526" lon="2.19359">
        <ele>133.28</ele>
        <time>2014-03-22T14:36:25Z</time>
      </trkpt>
      <trkpt lat="43.22536" lon="2.19354">
        <ele>133.28</ele>
        <time>2014-03-22T14:36:44Z</time>
      </trkpt>
      <trkpt lat="43.22551" lon="2.19344">
        <ele>132.8</ele>
        <time>2014-03-22T14:36:57Z</time>
      </trkpt>
      <trkpt lat="43.22575" lon="2.1933">
        <ele>133.76</ele>
        <time>2014-03-22T14:37:18Z</time>
      </trkpt>
      <trkpt lat="43.22586" lon="2.1932">
        <ele>134.72</ele>
        <time>2014-03-22T14:37:36Z</time>
      </trkpt>
      <trkpt lat="43.22597" lon="2.19305">
        <ele>135.68</ele>
        <time>2014-03-22T14:37:52Z</time>
      </trkpt>
      <trkpt lat="43.22611" lon="2.19281">
        <ele>135.2</ele>
        <time>2014-03-22T14:38:09Z</time>
      </trkpt>
      <trkpt lat="43.22625" lon="2.19268">
        <ele>133.76</ele>
        <time>2014-03-22T14:38:24Z</time>
      </trkpt>
      <trkpt lat="43.22647" lon="2.19254">
        <ele>131.36</ele>
        <time>2014-03-22T14:38:43Z</time>
      </trkpt>
      <trkpt lat="43.22671" lon="2.19234">
        <ele>132.8</ele>
        <time>2014-03-22T14:39:03Z</time>
      </trkpt>
      <trkpt lat="43.22693" lon="2.19218">
        <ele>134.72</ele>
        <time>2014-03-22T14:39:22Z</time>
      </trkpt>
      <trkpt lat="43.22709" lon="2.19201">
        <ele>135.2</ele>
        <time>2014-03-22T14:39:40Z</time>
      </trkpt>
      <trkpt lat="43.22719" lon="2.19197">
        <ele>134.72</ele>
        <time>2014-03-22T14:39:55Z</time>
      </trkpt>
      <trkpt lat="43.2272" lon="2.19196">
        <ele>132.32</ele>
        <time>2014-03-22T14:40:17Z</time>
      </trkpt>
      <trkpt lat="43.2272" lon="2.19196">
        <ele>130.88</ele>
        <time>2014-03-22T14:40:38Z</time>
      </trkpt>
      <trkpt lat="43.2272" lon="2.19195">
        <ele>132.32</ele>
        <time>2014-03-22T14:40:58Z</time>
      </trkpt>
      <trkpt lat="43.22729" lon="2.19196">
        <ele>134.24</ele>
        <time>2014-03-22T14:41:19Z</time>
      </trkpt>
      <trkpt lat="43.22751" lon="2.19196">
        <ele>134.24</ele>
        <time>2014-03-22T14:41:39Z</time>
      </trkpt>
      <trkpt lat="43.22766" lon="2.19196">
        <ele>135.2</ele>
        <time>2014-03-22T14:41:55Z</time>
      </trkpt>
      <trkpt lat="43.22776" lon="2.19197">
        <ele>134.72</ele>
        <time>2014-03-22T14:42:09Z</time>
      </trkpt>
      <trkpt lat="43.22791" lon="2.19203">
        <ele>133.76</ele>
        <time>2014-03-22T14:42:23Z</time>
      </trkpt>
      <trkpt lat="43.22793" lon="2.19205">
        <ele>133.28</ele>
        <time>2014-03-22T14:42:26Z</time>
      </trkpt>
      <trkpt lat="43.2281" lon="2.19215">
        <ele>132.32</ele>
        <time>2014-03-22T14:42:45Z</time>
      </trkpt>
      <trkpt lat="43.22832" lon="2.19217">
        <ele>133.76</ele>
        <time>2014-03-22T14:43:08Z</time>
      </trkpt>
      <trkpt lat="43.22861" lon="2.19213">
        <ele>134.72</ele>
        <time>2014-03-22T14:43:29Z</time>
      </trkpt>
      <trkpt lat="43.2288" lon="2.19211">
        <ele>133.76</ele>
        <time>2014-03-22T14:43:49Z</time>
      </trkpt>
      <trkpt lat="43.22888" lon="2.19209">
        <ele>133.28</ele>
        <time>2014-03-22T14:44:07Z</time>
      </trkpt>
      <trkpt lat="43.22894" lon="2.19207">
        <ele>133.76</ele>
        <time>2014-03-22T14:44:22Z</time>
      </trkpt>
      <trkpt lat="43.22896" lon="2.19206">
        <ele>133.76</ele>
        <time>2014-03-22T14:44:24Z</time>
      </trkpt>
      <trkpt lat="43.22911" lon="2.19195">
        <ele>135.2</ele>
        <time>2014-03-22T14:44:46Z</time>
      </trkpt>
      <trkpt lat="43.22909" lon="2.19197">
        <ele>135.68</ele>
        <time>2014-03-22T14:45:05Z</time>
      </trkpt>
      <trkpt lat="43.22909" lon="2.19201">
        <ele>139.05</ele>
        <time>2014-03-22T14:45:38Z</time>
      </trkpt>
      <trkpt lat="43.2292" lon="2.19195">
        <ele>137.61</ele>
        <time>2014-03-22T14:45:59Z</time>
      </trkpt>
      <trkpt lat="43.22928" lon="2.1917">
        <ele>136.16</ele>
        <time>2014-03-22T14:46:15Z</time>
      </trkpt>
      <trkpt lat="43.22936" lon="2.19134">
        <ele>135.68</ele>
        <time>2014-03-22T14:46:30Z</time>
      </trkpt>
      <trkpt lat="43.22941" lon="2.19098">
        <ele>136.16</ele>
        <time>2014-03-22T14:46:44Z</time>
      </trkpt>
      <trkpt lat="43.22942" lon="2.19091">
        <ele>137.13</ele>
        <time>2014-03-22T14:47:02Z</time>
      </trkpt>
      <trkpt lat="43.22949" lon="2.19084">
        <ele>137.13</ele>
        <time>2014-03-22T14:47:17Z</time>
      </trkpt>
      <trkpt lat="43.22964" lon="2.19089">
        <ele>136.64</ele>
        <time>2014-03-22T14:47:31Z</time>
      </trkpt>
      <trkpt lat="43.22983" lon="2.19097">
        <ele>136.64</ele>
        <time>2014-03-22T14:47:49Z</time>
      </trkpt>
      <trkpt lat="43.23003" lon="2.19105">
        <ele>136.64</ele>
        <time>2014-03-22T14:48:06Z</time>
      </trkpt>
      <trkpt lat="43.23018" lon="2.19102">
        <ele>137.13</ele>
        <time>2014-03-22T14:48:22Z</time>
      </trkpt>
      <trkpt lat="43.23024" lon="2.19094">
        <ele>137.61</ele>
        <time>2014-03-22T14:48:36Z</time>
      </trkpt>
      <trkpt lat="43.23029" lon="2.19069">
        <ele>135.68</ele>
        <time>2014-03-22T14:48:53Z</time>
      </trkpt>
      <trkpt lat="43.23032" lon="2.1905">
        <ele>135.68</ele>
        <time>2014-03-22T14:49:12Z</time>
      </trkpt>
      <trkpt lat="43.23037" lon="2.19023">
        <ele>134.72</ele>
        <time>2014-03-22T14:49:29Z</time>
      </trkpt>
      <trkpt lat="43.23041" lon="2.18996">
        <ele>134.24</ele>
        <time>2014-03-22T14:49:45Z</time>
      </trkpt>
      <trkpt lat="43.23047" lon="2.18973">
        <ele>133.28</ele>
        <time>2014-03-22T14:50:01Z</time>
      </trkpt>
      <trkpt lat="43.23054" lon="2.18965">
        <ele>132.8</ele>
        <time>2014-03-22T14:50:08Z</time>
      </trkpt>
      <trkpt lat="43.23064" lon="2.18961">
        <ele>132.8</ele>
        <time>2014-03-22T14:50:17Z</time>
      </trkpt>
      <trkpt lat="43.23083" lon="2.18968">
        <ele>132.32</ele>
        <time>2014-03-22T14:50:35Z</time>
      </trkpt>
      <trkpt lat="43.23102" lon="2.18977">
        <ele>132.32</ele>
        <time>2014-03-22T14:50:52Z</time>
      </trkpt>
      <trkpt lat="43.23127" lon="2.18988">
        <ele>133.28</ele>
        <time>2014-03-22T14:51:14Z</time>
      </trkpt>
      <trkpt lat="43.23133" lon="2.18989">
        <ele>135.68</ele>
        <time>2014-03-22T14:51:36Z</time>
      </trkpt>
      <trkpt lat="43.23157" lon="2.19002">
        <ele>135.2</ele>
        <time>2014-03-22T14:51:57Z</time>
      </trkpt>
      <trkpt lat="43.23179" lon="2.19012">
        <ele>134.24</ele>
        <time>2014-03-22T14:52:16Z</time>
      </trkpt>
      <trkpt lat="43.23192" lon="2.19018">
        <ele>134.72</ele>
        <time>2014-03-22T14:52:31Z</time>
      </trkpt>
      <trkpt lat="43.23209" lon="2.19022">
        <ele>135.2</ele>
        <time>2014-03-22T14:52:50Z</time>
      </trkpt>
      <trkpt lat="43.23208" lon="2.19045">
        <ele>135.2</ele>
        <time>2014-03-22T14:53:07Z</time>
      </trkpt>
      <trkpt lat="43.23209" lon="2.1905">
        <ele>135.68</ele>
        <time>2014-03-22T14:53:10Z</time>
      </trkpt>
      <trkpt lat="43.23206" lon="2.19075">
        <ele>135.68</ele>
        <time>2014-03-22T14:53:27Z</time>
      </trkpt>
      <trkpt lat="43.23204" lon="2.19095">
        <ele>135.2</ele>
        <time>2014-03-22T14:53:41Z</time>
      </trkpt>
      <trkpt lat="43.23203" lon="2.19122">
        <ele>135.2</ele>
        <time>2014-03-22T14:54:00Z</time>
      </trkpt>
      <trkpt lat="43.23207" lon="2.19151">
        <ele>134.72</ele>
        <time>2014-03-22T14:54:18Z</time>
      </trkpt>
      <trkpt lat="43.23216" lon="2.19176">
        <ele>135.2</ele>
        <time>2014-03-22T14:54:36Z</time>
      </trkpt>
      <trkpt lat="43.23217" lon="2.19178">
        <ele>135.2</ele>
        <time>2014-03-22T14:54:37Z</time>
      </trkpt>
      <trkpt lat="43.23224" lon="2.19202">
        <ele>136.16</ele>
        <time>2014-03-22T14:54:54Z</time>
      </trkpt>
      <trkpt lat="43.23228" lon="2.19228">
        <ele>137.61</ele>
        <time>2014-03-22T14:55:11Z</time>
      </trkpt>
      <trkpt lat="43.23225" lon="2.19263">
        <ele>140.01</ele>
        <time>2014-03-22T14:55:31Z</time>
      </trkpt>
      <trkpt lat="43.23222" lon="2.19281">
        <ele>140.01</ele>
        <time>2014-03-22T14:55:42Z</time>
      </trkpt>
      <trkpt lat="43.23223" lon="2.19299">
        <ele>140.01</ele>
        <time>2014-03-22T14:56:00Z</time>
      </trkpt>
      <trkpt lat="43.23222" lon="2.19312">
        <ele>140.01</ele>
        <time>2014-03-22T14:56:14Z</time>
      </trkpt>
      <trkpt lat="43.2322" lon="2.1932">
        <ele>139.53</ele>
        <time>2014-03-22T14:56:35Z</time>
      </trkpt>
      <trkpt lat="43.23216" lon="2.19339">
        <ele>137.61</ele>
        <time>2014-03-22T14:56:48Z</time>
      </trkpt>
      <trkpt lat="43.23211" lon="2.19343">
        <ele>137.13</ele>
        <time>2014-03-22T14:56:52Z</time>
      </trkpt>
      <trkpt lat="43.23189" lon="2.19341">
        <ele>136.64</ele>
        <time>2014-03-22T14:57:10Z</time>
      </trkpt>
      <trkpt lat="43.23176" lon="2.19336">
        <ele>137.61</ele>
        <time>2014-03-22T14:57:25Z</time>
      </trkpt>
      <trkpt lat="43.23172" lon="2.19334">
        <ele>139.05</ele>
        <time>2014-03-22T14:57:42Z</time>
      </trkpt>
      <trkpt lat="43.23164" lon="2.19331">
        <ele>138.57</ele>
        <time>2014-03-22T14:57:58Z</time>
      </trkpt>
      <trkpt lat="43.23152" lon="2.19326">
        <ele>138.09</ele>
        <time>2014-03-22T14:58:13Z</time>
      </trkpt>
      <trkpt lat="43.23133" lon="2.19321">
        <ele>138.09</ele>
        <time>2014-03-22T14:58:30Z</time>
      </trkpt>
      <trkpt lat="43.23117" lon="2.19316">
        <ele>138.57</ele>
        <time>2014-03-22T14:58:46Z</time>
      </trkpt>
      <trkpt lat="43.23105" lon="2.19311">
        <ele>138.09</ele>
        <time>2014-03-22T14:59:01Z</time>
      </trkpt>
      <trkpt lat="43.23104" lon="2.1931">
        <ele>138.09</ele>
        <time>2014-03-22T14:59:02Z</time>
      </trkpt>
      <trkpt lat="43.23086" lon="2.193">
        <ele>138.57</ele>
        <time>2014-03-22T14:59:20Z</time>
      </trkpt>
      <trkpt lat="43.23071" lon="2.19298">
        <ele>138.57</ele>
        <time>2014-03-22T14:59:37Z</time>
      </trkpt>
      <trkpt lat="43.2306" lon="2.19295">
        <ele>138.57</ele>
        <time>2014-03-22T14:59:55Z</time>
      </trkpt>
      <trkpt lat="43.23039" lon="2.1929">
        <ele>138.57</ele>
        <time>2014-03-22T15:00:12Z</time>
      </trkpt>
      <trkpt lat="43.23017" lon="2.19282">
        <ele>138.09</ele>
        <time>2014-03-22T15:00:31Z</time>
      </trkpt>
      <trkpt lat="43.22997" lon="2.19275">
        <ele>138.57</ele>
        <time>2014-03-22T15:00:49Z</time>
      </trkpt>
      <trkpt lat="43.22995" lon="2.19278">
        <ele>139.05</ele>
        <time>2014-03-22T15:00:52Z</time>
      </trkpt>
      <trkpt lat="43.22989" lon="2.19295">
        <ele>137.61</ele>
        <time>2014-03-22T15:01:08Z</time>
      </trkpt>
      <trkpt lat="43.22988" lon="2.19296">
        <ele>136.64</ele>
        <time>2014-03-22T15:01:15Z</time>
      </trkpt>
      <trkpt lat="43.22979" lon="2.19289">
        <ele>137.13</ele>
        <time>2014-03-22T15:01:31Z</time>
      </trkpt>
      <trkpt lat="43.22961" lon="2.19272">
        <ele>138.09</ele>
        <time>2014-03-22T15:01:50Z</time>
      </trkpt>
      <trkpt lat="43.22941" lon="2.19255">
        <ele>138.57</ele>
        <time>2014-03-22T15:02:09Z</time>
      </trkpt>
      <trkpt lat="43.22924" lon="2.19241">
        <ele>138.09</ele>
        <time>2014-03-22T15:02:27Z</time>
      </trkpt>
      <trkpt lat="43.22907" lon="2.19226">
        <ele>138.09</ele>
        <time>2014-03-22T15:02:45Z</time>
      </trkpt>
      <trkpt lat="43.22896" lon="2.19218">
        <ele>138.57</ele>
        <time>2014-03-22T15:02:55Z</time>
      </trkpt>
      <trkpt lat="43.22891" lon="2.19215">
        <ele>138.09</ele>
        <time>2014-03-22T15:03:04Z</time>
      </trkpt>
      <trkpt lat="43.22886" lon="2.19215">
        <ele>138.09</ele>
        <time>2014-03-22T15:03:08Z</time>
      </trkpt>
      <trkpt lat="43.22858" lon="2.19222">
        <ele>138.57</ele>
        <time>2014-03-22T15:03:30Z</time>
      </trkpt>
      <trkpt lat="43.22833" lon="2.19229">
        <ele>138.57</ele>
        <time>2014-03-22T15:03:51Z</time>
      </trkpt>
      <trkpt lat="43.2283" lon="2.19247">
        <ele>137.13</ele>
        <time>2014-03-22T15:04:08Z</time>
      </trkpt>
      <trkpt lat="43.22827" lon="2.19265">
        <ele>136.16</ele>
        <time>2014-03-22T15:04:26Z</time>
      </trkpt>
      <trkpt lat="43.22824" lon="2.19279">
        <ele>134.24</ele>
        <time>2014-03-22T15:04:44Z</time>
      </trkpt>
      <trkpt lat="43.22823" lon="2.19295">
        <ele>134.24</ele>
        <time>2014-03-22T15:05:06Z</time>
      </trkpt>
      <trkpt lat="43.2282" lon="2.19317">
        <ele>134.24</ele>
        <time>2014-03-22T15:05:22Z</time>
      </trkpt>
      <trkpt lat="43.22815" lon="2.19345">
        <ele>132.8</ele>
        <time>2014-03-22T15:05:41Z</time>
      </trkpt>
      <trkpt lat="43.22814" lon="2.19352">
        <ele>132.32</ele>
        <time>2014-03-22T15:05:46Z</time>
      </trkpt>
      <trkpt lat="43.2281" lon="2.19384">
        <ele>134.24</ele>
        <time>2014-03-22T15:06:06Z</time>
      </trkpt>
      <trkpt lat="43.22807" lon="2.19408">
        <ele>135.2</ele>
        <time>2014-03-22T15:06:23Z</time>
      </trkpt>
      <trkpt lat="43.22804" lon="2.19436">
        <ele>135.2</ele>
        <time>2014-03-22T15:06:40Z</time>
      </trkpt>
      <trkpt lat="43.22801" lon="2.19458">
        <ele>134.24</ele>
        <time>2014-03-22T15:06:55Z</time>
      </trkpt>
      <trkpt lat="43.22798" lon="2.19487">
        <ele>132.8</ele>
        <time>2014-03-22T15:07:15Z</time>
      </trkpt>
      <trkpt lat="43.22797" lon="2.19488">
        <ele>131.84</ele>
        <time>2014-03-22T15:07:36Z</time>
      </trkpt>
      <trkpt lat="43.22796" lon="2.19492">
        <ele>130.88</ele>
        <time>2014-03-22T15:07:55Z</time>
      </trkpt>
      <trkpt lat="43.22795" lon="2.19496">
        <ele>132.32</ele>
        <time>2014-03-22T15:08:12Z</time>
      </trkpt>
      <trkpt lat="43.2279" lon="2.195">
        <ele>134.24</ele>
        <time>2014-03-22T15:08:27Z</time>
      </trkpt>
      <trkpt lat="43.22787" lon="2.19497">
        <ele>135.2</ele>
        <time>2014-03-22T15:08:37Z</time>
      </trkpt>
      <trkpt lat="43.2277" lon="2.19488">
        <ele>135.68</ele>
        <time>2014-03-22T15:08:56Z</time>
      </trkpt>
      <trkpt lat="43.22753" lon="2.19478">
        <ele>135.2</ele>
        <time>2014-03-22T15:09:14Z</time>
      </trkpt>
      <trkpt lat="43.22734" lon="2.19467">
        <ele>135.68</ele>
        <time>2014-03-22T15:09:32Z</time>
      </trkpt>
      <trkpt lat="43.22716" lon="2.19458">
        <ele>135.68</ele>
        <time>2014-03-22T15:09:49Z</time>
      </trkpt>
      <trkpt lat="43.22705" lon="2.19453">
        <ele>136.16</ele>
        <time>2014-03-22T15:10:04Z</time>
      </trkpt>
      <trkpt lat="43.22693" lon="2.19447">
        <ele>136.64</ele>
        <time>2014-03-22T15:10:18Z</time>
      </trkpt>
      <trkpt lat="43.22681" lon="2.19441">
        <ele>135.68</ele>
        <time>2014-03-22T15:10:40Z</time>
      </trkpt>
      <trkpt lat="43.22669" lon="2.19435">
        <ele>136.64</ele>
        <time>2014-03-22T15:10:58Z</time>
      </trkpt>
      <trkpt lat="43.22659" lon="2.19432">
        <ele>139.53</ele>
        <time>2014-03-22T15:11:21Z</time>
      </trkpt>
      <trkpt lat="43.22639" lon="2.19421">
        <ele>140.01</ele>
        <time>2014-03-22T15:11:39Z</time>
      </trkpt>
      <trkpt lat="43.22625" lon="2.19414">
        <ele>141.45</ele>
        <time>2014-03-22T15:11:57Z</time>
      </trkpt>
      <trkpt lat="43.2261" lon="2.19405">
        <ele>140.97</ele>
        <time>2014-03-22T15:12:13Z</time>
      </trkpt>
      <trkpt lat="43.226" lon="2.194">
        <ele>140.01</ele>
        <time>2014-03-22T15:12:29Z</time>
      </trkpt>
      <trkpt lat="43.22587" lon="2.19395">
        <ele>140.01</ele>
        <time>2014-03-22T15:12:44Z</time>
      </trkpt>
      <trkpt lat="43.22574" lon="2.19388">
        <ele>140.49</ele>
        <time>2014-03-22T15:12:59Z</time>
      </trkpt>
      <trkpt lat="43.22559" lon="2.19379">
        <ele>139.53</ele>
        <time>2014-03-22T15:13:15Z</time>
      </trkpt>
      <trkpt lat="43.22544" lon="2.19371">
        <ele>138.57</ele>
        <time>2014-03-22T15:13:31Z</time>
      </trkpt>
      <trkpt lat="43.22532" lon="2.19363">
        <ele>139.05</ele>
        <time>2014-03-22T15:13:44Z</time>
      </trkpt>
      <trkpt lat="43.22512" lon="2.19372">
        <ele>140.97</ele>
        <time>2014-03-22T15:14:03Z</time>
      </trkpt>
      <trkpt lat="43.22492" lon="2.19385">
        <ele>141.93</ele>
        <time>2014-03-22T15:14:22Z</time>
      </trkpt>
      <trkpt lat="43.22472" lon="2.19396">
        <ele>143.37</ele>
        <time>2014-03-22T15:14:41Z</time>
      </trkpt>
      <trkpt lat="43.22463" lon="2.19402">
        <ele>144.82</ele>
        <time>2014-03-22T15:14:55Z</time>
      </trkpt>
      <trkpt lat="43.22443" lon="2.19412">
        <ele>144.82</ele>
        <time>2014-03-22T15:15:14Z</time>
      </trkpt>
      <trkpt lat="43.22425" lon="2.19425">
        <ele>145.3</ele>
        <time>2014-03-22T15:15:32Z</time>
      </trkpt>
      <trkpt lat="43.22404" lon="2.19442">
        <ele>147.22</ele>
        <time>2014-03-22T15:15:53Z</time>
      </trkpt>
      <trkpt lat="43.22384" lon="2.1946">
        <ele>148.66</ele>
        <time>2014-03-22T15:16:11Z</time>
      </trkpt>
      <trkpt lat="43.2236" lon="2.19476">
        <ele>152.03</ele>
        <time>2014-03-22T15:16:32Z</time>
      </trkpt>
      <trkpt lat="43.2234" lon="2.19481">
        <ele>153.95</ele>
        <time>2014-03-22T15:16:50Z</time>
      </trkpt>
      <trkpt lat="43.22325" lon="2.19483">
        <ele>154.91</ele>
        <time>2014-03-22T15:17:05Z</time>
      </trkpt>
      <trkpt lat="43.22305" lon="2.19488">
        <ele>155.39</ele>
        <time>2014-03-22T15:17:24Z</time>
      </trkpt>
      <trkpt lat="43.22286" lon="2.19494">
        <ele>155.87</ele>
        <time>2014-03-22T15:17:42Z</time>
      </trkpt>
      <trkpt lat="43.22267" lon="2.19502">
        <ele>155.87</ele>
        <time>2014-03-22T15:17:59Z</time>
      </trkpt>
      <trkpt lat="43.22249" lon="2.19509">
        <ele>155.39</ele>
        <time>2014-03-22T15:18:15Z</time>
      </trkpt>
      <trkpt lat="43.22228" lon="2.19521">
        <ele>155.39</ele>
        <time>2014-03-22T15:18:34Z</time>
      </trkpt>
      <trkpt lat="43.2222" lon="2.19522">
        <ele>155.39</ele>
        <time>2014-03-22T15:18:49Z</time>
      </trkpt>
      <trkpt lat="43.22215" lon="2.19521">
        <ele>155.39</ele>
        <time>2014-03-22T15:19:03Z</time>
      </trkpt>
      <trkpt lat="43.22219" lon="2.1952">
        <ele>154.43</ele>
        <time>2014-03-22T15:19:23Z</time>
      </trkpt>
      <trkpt lat="43.2222" lon="2.19521">
        <ele>153.47</ele>
        <time>2014-03-22T15:19:41Z</time>
      </trkpt>
      <trkpt lat="43.22221" lon="2.19523">
        <ele>152.99</ele>
        <time>2014-03-22T15:20:03Z</time>
      </trkpt>
      <trkpt lat="43.2222" lon="2.19522">
        <ele>152.51</ele>
        <time>2014-03-22T15:20:22Z</time>
      </trkpt>
      <trkpt lat="43.22217" lon="2.19523">
        <ele>153.47</ele>
        <time>2014-03-22T15:20:44Z</time>
      </trkpt>
      <trkpt lat="43.22215" lon="2.19522">
        <ele>152.99</ele>
        <time>2014-03-22T15:21:00Z</time>
      </trkpt>
      <trkpt lat="43.22212" lon="2.19521">
        <ele>148.66</ele>
        <time>2014-03-22T15:21:26Z</time>
      </trkpt>
      <trkpt lat="43.22207" lon="2.19526">
        <ele>148.18</ele>
        <time>2014-03-22T15:21:37Z</time>
      </trkpt>
      <trkpt lat="43.22202" lon="2.1953">
        <ele>146.74</ele>
        <time>2014-03-22T15:21:53Z</time>
      </trkpt>
      <trkpt lat="43.22202" lon="2.19531">
        <ele>146.74</ele>
        <time>2014-03-22T15:22:12Z</time>
      </trkpt>
    </trkseg>
  </trk>
</gpx>